Haramachi Maru — JBML — position and weather

sailwx.info

Track history (hours):
 
Tides and Currents Weather Stations Pressure Air Temp Water Temp Dewpoint Dewpoint Depression Visibility Wind Speed Wind Dir Waves Ship Positions

Haramachi Maru

Last reported at 2015-Apr-05 07:26 UTC. Time now 2015-Apr-18 20:48 UTC.
Position S 27°02' E 153°52'.
Warning: this ship's position is 13 days out of date.

Length 239.8 m; beam 43 m.

Type: Cargo ship. MMSI: 431106000.

Date/timePositionNaut miles runAvg speedWind from/ knotsBaromVisibWave heightAir tempDewpointWater temp
2015-Apr-05 07:26S 27°02' E 153°52'1010.8
2015-Apr-05 06:31S 27°12' E 153°52'2510.2
2015-Apr-05 04:06S 27°36' E 153°51'5 9.8
2015-Apr-05 03:33S 27°42' E 153°50'10 9.8
2015-Apr-05 02:33S 27°51' E 153°50'10 9.9
2015-Apr-05 01:33S 28°01' E 153°50'28110.4
2015-Apr-03 22:27S 32°35' E 152°38'1011.2
2015-Apr-03 21:33S 32°43' E 152°30'1111.3
2015-Apr-03 20:34S 32°49' E 152°19'1211.5
2015-Apr-03 19:33S 32°53' E 152°06'1111.3
2015-Apr-03 18:33S 32°54' E 151°53'6 5.6
2015-Apr-03 17:34S 32°54' E 151°46'2 1.4
2015-Apr-03 16:31S 32°53' E 151°45'0 0.0
2015-Apr-03 15:28S 32°53' E 151°45'0 0.0
2015-Apr-03 14:31S 32°53' E 151°45'0 0.0
2015-Apr-03 12:28S 32°53' E 151°45'0 0.0
2015-Apr-03 11:31S 32°53' E 151°45'0 0.0
2015-Apr-03 10:28S 32°53' E 151°45'0 0.0
2015-Apr-03 09:28S 32°53' E 151°45'0 0.0
2015-Apr-03 08:04S 32°53' E 151°45'0 0.0
2015-Apr-03 07:28S 32°53' E 151°45'0 0.0
2015-Apr-03 05:31S 32°53' E 151°45'0 0.0
2015-Apr-03 04:22S 32°53' E 151°45'0 0.0
2015-Apr-03 03:22S 32°53' E 151°45'0 0.0
2015-Apr-03 02:22S 32°53' E 151°45'0 0.0
2015-Apr-03 01:28S 32°53' E 151°45'0 0.0
2015-Apr-03 00:10S 32°53' E 151°45'0 0.0
2015-Apr-02 23:28S 32°53' E 151°45'0 0.0
2015-Apr-02 22:28S 32°53' E 151°45'0 0.0
2015-Apr-02 21:04S 32°53' E 151°45'0 0.0
2015-Apr-02 19:22S 32°53' E 151°45'0 0.0
2015-Apr-02 18:22S 32°53' E 151°45'0 0.0
2015-Apr-02 17:28S 32°53' E 151°45'0 0.0
2015-Apr-02 16:28S 32°53' E 151°45'0 0.0
2015-Apr-02 15:28S 32°53' E 151°45'0 0.0
2015-Apr-02 14:33S 32°53' E 151°45'2 1.7
2015-Apr-02 13:33S 32°54' E 151°46'6 6.4
2015-Apr-02 12:33S 32°59' E 151°51'6 5.5
2015-Apr-02 11:28S 33°04' E 151°48'  
2015-Mar-29 06:08S 33°04' E 151°50'5 9.0
2015-Mar-29 05:33S 33°01' E 151°56'1312.7
2015-Mar-29 04:33S 32°57' E 152°10'1313.0
2015-Mar-29 03:33S 32°52' E 152°24'1313.2
2015-Mar-29 02:33S 32°41' E 152°33'1313.1
2015-Mar-29 01:32S 32°30' E 152°42'26913.5
2015-Mar-28 05:33S 28°07' E 153°50'1515.1
2015-Mar-28 04:33S 27°52' E 153°50'1515.1
2015-Mar-28 03:33S 27°36' E 153°51'1514.8
2015-Mar-28 02:32S 27°21' E 153°50'1414.8
2015-Mar-28 01:33S 27°07' E 153°51'1615.0
2015-Mar-28 00:29S 26°51' E 153°52'  
Track history (hours):
 
Tides and Currents Weather Stations Pressure Air Temp Water Temp Dewpoint Dewpoint Depression Visibility Wind Speed Wind Dir Waves Ship Positions

Haramachi Maru

Last reported at 2015-Apr-05 07:26 UTC. Time now 2015-Apr-18 20:48 UTC.
Position S 27°02' E 153°52'.
Warning: this ship's position is 13 days out of date.

Length 239.8 m; beam 43 m.

Type: Cargo ship. MMSI: 431106000.

Date/timePositionNaut miles runAvg speedWind from/ knotsBaromVisibWave heightAir tempDewpointWater temp
2015-Apr-05 07:26S 27°02' E 153°52'1010.8
2015-Apr-05 06:31S 27°12' E 153°52'2510.2
2015-Apr-05 04:06S 27°36' E 153°51'5 9.8
2015-Apr-05 03:33S 27°42' E 153°50'10 9.8
2015-Apr-05 02:33S 27°51' E 153°50'10 9.9
2015-Apr-05 01:33S 28°01' E 153°50'28110.4
2015-Apr-03 22:27S 32°35' E 152°38'1011.2
2015-Apr-03 21:33S 32°43' E 152°30'1111.3
2015-Apr-03 20:34S 32°49' E 152°19'1211.5
2015-Apr-03 19:33S 32°53' E 152°06'1111.3
2015-Apr-03 18:33S 32°54' E 151°53'6 5.6
2015-Apr-03 17:34S 32°54' E 151°46'2 1.4
2015-Apr-03 16:31S 32°53' E 151°45'0 0.0
2015-Apr-03 15:28S 32°53' E 151°45'0 0.0
2015-Apr-03 14:31S 32°53' E 151°45'0 0.0
2015-Apr-03 12:28S 32°53' E 151°45'0 0.0
2015-Apr-03 11:31S 32°53' E 151°45'0 0.0
2015-Apr-03 10:28S 32°53' E 151°45'0 0.0
2015-Apr-03 09:28S 32°53' E 151°45'0 0.0
2015-Apr-03 08:04S 32°53' E 151°45'0 0.0
2015-Apr-03 07:28S 32°53' E 151°45'0 0.0
2015-Apr-03 05:31S 32°53' E 151°45'0 0.0
2015-Apr-03 04:22S 32°53' E 151°45'0 0.0
2015-Apr-03 03:22S 32°53' E 151°45'0 0.0
2015-Apr-03 02:22S 32°53' E 151°45'0 0.0
2015-Apr-03 01:28S 32°53' E 151°45'0 0.0
2015-Apr-03 00:10S 32°53' E 151°45'0 0.0
2015-Apr-02 23:28S 32°53' E 151°45'0 0.0
2015-Apr-02 22:28S 32°53' E 151°45'0 0.0
2015-Apr-02 21:04S 32°53' E 151°45'0 0.0
2015-Apr-02 19:22S 32°53' E 151°45'0 0.0
2015-Apr-02 18:22S 32°53' E 151°45'0 0.0
2015-Apr-02 17:28S 32°53' E 151°45'0 0.0
2015-Apr-02 16:28S 32°53' E 151°45'0 0.0
2015-Apr-02 15:28S 32°53' E 151°45'0 0.0
2015-Apr-02 14:33S 32°53' E 151°45'2 1.7
2015-Apr-02 13:33S 32°54' E 151°46'6 6.4
2015-Apr-02 12:33S 32°59' E 151°51'6 5.5
2015-Apr-02 11:28S 33°04' E 151°48'  
2015-Mar-29 06:08S 33°04' E 151°50'5 9.0
2015-Mar-29 05:33S 33°01' E 151°56'1312.7
2015-Mar-29 04:33S 32°57' E 152°10'1313.0
2015-Mar-29 03:33S 32°52' E 152°24'1313.2
2015-Mar-29 02:33S 32°41' E 152°33'1313.1
2015-Mar-29 01:32S 32°30' E 152°42'26913.5
2015-Mar-28 05:33S 28°07' E 153°50'1515.1
2015-Mar-28 04:33S 27°52' E 153°50'1515.1
2015-Mar-28 03:33S 27°36' E 153°51'1514.8
2015-Mar-28 02:32S 27°21' E 153°50'1414.8
2015-Mar-28 01:33S 27°07' E 153°51'1615.0
2015-Mar-28 00:29S 26°51' E 153°52'  

Dump ship's entire track history